createdAt,value
2022-12-26T00:00:25.309Z,12.90
2022-12-26T00:02:51.941Z,9.07
2022-12-26T00:05:18.590Z,8.33
2022-12-26T00:07:45.735Z,9.67
2022-12-26T00:10:12.362Z,12.07
2022-12-26T00:12:38.932Z,10.40
2022-12-26T00:15:05.797Z,10.03
2022-12-26T00:17:32.315Z,10.90
2022-12-26T00:19:59.005Z,11.20
2022-12-26T00:22:25.538Z,12.57
2022-12-26T00:24:52.068Z,11.03
2022-12-26T00:27:18.576Z,14.43
2022-12-26T00:29:47.806Z,9.57
2022-12-26T00:32:14.304Z,10.70
2022-12-26T00:34:40.836Z,12.00
2022-12-26T00:37:07.532Z,12.47
2022-12-26T00:39:34.061Z,13.23
2022-12-26T00:42:00.608Z,16.37
2022-12-26T00:44:27.385Z,13.47
2022-12-26T00:46:54.154Z,14.63
2022-12-26T00:49:20.704Z,12.27
2022-12-26T00:51:47.486Z,13.00
2022-12-26T00:54:14.027Z,11.50
2022-12-26T00:56:40.552Z,13.13
2022-12-26T00:59:07.117Z,12.37
2022-12-26T01:01:34.031Z,13.20
2022-12-26T01:04:01.048Z,11.63
2022-12-26T01:06:27.632Z,12.87
2022-12-26T01:08:54.381Z,12.57
2022-12-26T01:11:40.162Z,14.10
2022-12-26T01:14:16.752Z,13.10
2022-12-26T01:16:45.615Z,14.50
2022-12-26T01:19:13.157Z,17.33
2022-12-26T01:21:39.849Z,13.00
2022-12-26T01:24:07.491Z,13.27
2022-12-26T01:26:34.932Z,13.97
2022-12-26T01:29:01.564Z,16.30
2022-12-26T01:31:28.553Z,15.20
2022-12-26T01:33:55.124Z,15.43
2022-12-26T01:36:21.658Z,15.03
2022-12-26T01:38:48.262Z,16.60
2022-12-26T01:41:19.337Z,15.70
2022-12-26T01:43:52.255Z,15.90
2022-12-26T01:46:24.048Z,16.03
2022-12-26T01:48:51.458Z,11.37
2022-12-26T01:51:21.955Z,14.90
2022-12-26T01:53:54.215Z,13.20
2022-12-26T01:56:29.452Z,13.97
2022-12-26T01:59:07.121Z,13.80
2022-12-26T02:01:37.553Z,14.10
2022-12-26T02:04:27.725Z,12.50
2022-12-26T02:06:54.937Z,13.40
2022-12-26T02:09:21.767Z,11.50
2022-12-26T02:12:33.960Z,15.57
2022-12-26T02:14:43.680Z,10.03
2022-12-26T02:17:11.213Z,11.90
2022-12-26T02:19:45.091Z,13.70
2022-12-26T02:22:37.861Z,11.90
2022-12-26T02:25:23.228Z,11.67
2022-12-26T02:28:20.045Z,12.70
2022-12-26T02:30:58.825Z,12.50
2022-12-26T02:33:44.167Z,14.13
2022-12-26T02:36:44.977Z,12.77
2022-12-26T02:39:46.689Z,13.33
2022-12-26T02:42:36.240Z,12.70
2022-12-26T02:45:35.416Z,13.63
2022-12-26T02:48:17.209Z,12.60
2022-12-26T02:51:15.163Z,13.10
2022-12-26T02:54:12.001Z,11.70
2022-12-26T02:57:02.045Z,10.20
2022-12-26T02:59:57.421Z,11.20
2022-12-26T03:02:45.618Z,10.03
2022-12-26T03:05:43.510Z,9.40
2022-12-26T03:08:32.323Z,9.63
2022-12-26T03:11:17.666Z,10.90
2022-12-26T03:13:45.633Z,8.37
2022-12-26T03:16:33.272Z,9.17
2022-12-26T03:19:06.042Z,8.70
2022-12-26T03:21:40.496Z,9.10
2022-12-26T03:24:12.233Z,9.90
2022-12-26T03:26:47.550Z,11.17
2022-12-26T03:29:36.305Z,9.60
2022-12-26T03:32:06.223Z,11.03
2022-12-26T03:34:35.050Z,11.67
2022-12-26T03:37:08.021Z,11.90
2022-12-26T03:40:35.424Z,12.23
2022-12-26T03:43:36.037Z,12.20
2022-12-26T03:46:36.301Z,12.07
2022-12-26T03:49:48.528Z,12.27
2022-12-26T03:52:44.893Z,12.83
2022-12-26T03:55:54.626Z,12.80
2022-12-26T03:58:57.185Z,12.87
2022-12-26T04:01:48.456Z,12.80
2022-12-26T04:04:35.580Z,12.70
2022-12-26T04:07:33.535Z,11.50
2022-12-26T04:10:28.066Z,10.93
2022-12-26T04:13:15.085Z,10.37
2022-12-26T04:16:14.701Z,10.50
2022-12-26T04:19:18.093Z,10.50
2022-12-26T04:22:41.683Z,9.97
2022-12-26T04:25:50.689Z,11.70
2022-12-26T04:28:39.885Z,10.73
2022-12-26T04:31:36.012Z,10.17
2022-12-26T04:34:27.603Z,10.27
2022-12-26T04:37:20.108Z,10.07
2022-12-26T04:40:09.325Z,10.17
2022-12-26T04:42:56.851Z,11.27
2022-12-26T04:45:24.151Z,11.97
2022-12-26T04:48:10.262Z,10.33
2022-12-26T04:50:36.829Z,12.00
2022-12-26T04:53:03.863Z,12.73
2022-12-26T04:55:32.951Z,12.50
2022-12-26T04:57:59.594Z,12.83
2022-12-26T05:00:28.195Z,13.00
2022-12-26T05:03:29.203Z,12.50
2022-12-26T05:06:14.217Z,12.70
2022-12-26T05:09:02.554Z,13.90
2022-12-26T05:11:31.272Z,12.53
2022-12-26T05:13:58.940Z,14.53
2022-12-26T05:16:46.380Z,13.70
2022-12-26T05:19:35.841Z,12.90
2022-12-26T05:22:23.167Z,14.30
2022-12-26T05:25:09.142Z,13.37
2022-12-26T05:27:58.436Z,13.40
2022-12-26T05:30:25.881Z,13.80
2022-12-26T05:33:11.216Z,12.83
2022-12-26T05:35:38.956Z,14.90
2022-12-26T05:38:06.238Z,14.63
2022-12-26T05:40:32.802Z,14.43
2022-12-26T05:43:00.216Z,14.30
2022-12-26T05:45:27.226Z,15.57
2022-12-26T05:48:03.386Z,15.03
2022-12-26T05:50:29.992Z,14.83
2022-12-26T05:52:58.023Z,14.80
2022-12-26T05:55:25.792Z,13.97
2022-12-26T05:57:52.338Z,14.60
2022-12-26T06:00:19.484Z,14.50
2022-12-26T06:02:46.407Z,14.40
2022-12-26T06:05:13.109Z,13.80
2022-12-26T06:07:39.600Z,14.57
2022-12-26T06:10:06.835Z,12.60
2022-12-26T06:12:34.635Z,13.33
2022-12-26T06:15:02.586Z,14.23
2022-12-26T06:17:29.259Z,14.70
2022-12-26T06:19:56.726Z,12.40
2022-12-26T06:22:23.673Z,13.00
2022-12-26T06:24:50.627Z,12.70
2022-12-26T06:27:17.168Z,13.47
2022-12-26T06:29:43.681Z,14.17
2022-12-26T06:32:10.215Z,12.33
2022-12-26T06:34:36.752Z,13.47
2022-12-26T06:37:03.306Z,11.97
2022-12-26T06:39:30.215Z,12.30
2022-12-26T06:41:56.953Z,14.07
2022-12-26T06:44:23.467Z,13.63
2022-12-26T06:46:51.489Z,12.53
2022-12-26T06:49:18.464Z,12.07
2022-12-26T06:51:45.065Z,12.57
2022-12-26T06:54:11.634Z,11.40
2022-12-26T06:56:38.425Z,12.07
2022-12-26T06:59:07.238Z,12.57
2022-12-26T07:01:35.190Z,12.20
2022-12-26T07:04:02.293Z,12.57
2022-12-26T07:06:37.273Z,11.43
2022-12-26T07:09:11.234Z,12.10
2022-12-26T07:11:40.149Z,12.00
2022-12-26T07:14:08.422Z,11.53
2022-12-26T07:16:36.628Z,11.20
2022-12-26T07:19:03.631Z,11.83
2022-12-26T07:21:34.837Z,11.53
2022-12-26T07:24:04.963Z,12.77
2022-12-26T07:26:31.500Z,12.23
2022-12-26T07:28:59.544Z,11.30
2022-12-26T07:31:28.218Z,11.57
2022-12-26T07:33:57.075Z,11.57
2022-12-26T07:36:25.215Z,12.50
2022-12-26T07:38:52.105Z,12.50
2022-12-26T07:41:37.233Z,11.50
2022-12-26T07:44:06.072Z,11.33
2022-12-26T07:46:33.219Z,12.60
2022-12-26T07:49:00.100Z,12.70
2022-12-26T07:51:27.129Z,11.90
2022-12-26T07:53:53.683Z,12.23
2022-12-26T07:56:20.395Z,12.77
2022-12-26T07:58:50.944Z,13.20
2022-12-26T08:01:18.502Z,12.33
2022-12-26T08:03:49.439Z,11.40
2022-12-26T08:06:17.411Z,11.37
2022-12-26T08:08:50.413Z,11.43
2022-12-26T08:11:20.674Z,10.90
2022-12-26T08:13:47.977Z,10.80
2022-12-26T08:16:15.621Z,10.27
2022-12-26T08:18:42.957Z,10.90
2022-12-26T08:21:10.772Z,10.33
2022-12-26T08:23:38.042Z,10.53
2022-12-26T08:26:10.228Z,11.37
2022-12-26T08:28:37.159Z,10.67
2022-12-26T08:31:08.211Z,9.40
2022-12-26T08:33:36.331Z,9.40
2022-12-26T08:36:09.354Z,11.80
2022-12-26T08:38:38.777Z,11.00
2022-12-26T08:41:06.172Z,10.13
2022-12-26T08:43:58.431Z,9.83
2022-12-26T08:46:21.311Z,11.20
2022-12-26T08:48:51.822Z,10.27
2022-12-26T08:51:21.907Z,9.40
2022-12-26T08:53:49.647Z,10.83
2022-12-26T08:56:20.802Z,11.07
2022-12-26T08:58:48.345Z,10.47
2022-12-26T09:01:24.268Z,10.10
2022-12-26T09:04:00.548Z,10.60
2022-12-26T09:06:29.122Z,9.93
2022-12-26T09:08:55.730Z,10.23
2022-12-26T09:11:28.917Z,10.37
2022-12-26T09:13:58.153Z,10.10
2022-12-26T09:16:31.515Z,10.07
2022-12-26T09:19:01.438Z,10.07
2022-12-26T09:21:29.897Z,10.80
2022-12-26T09:24:01.685Z,10.73
2022-12-26T09:26:29.205Z,10.00
2022-12-26T09:28:55.867Z,10.97
2022-12-26T09:31:25.073Z,11.10
2022-12-26T09:33:53.704Z,11.07
2022-12-26T09:36:26.351Z,10.03
2022-12-26T09:38:54.979Z,11.07
2022-12-26T09:41:58.492Z,9.90
2022-12-26T09:44:28.096Z,11.37
2022-12-26T09:47:17.899Z,10.17
2022-12-26T09:49:59.133Z,10.23
2022-12-26T09:52:49.758Z,11.00
2022-12-26T09:55:46.803Z,10.50
2022-12-26T09:58:33.472Z,9.70
2022-12-26T10:01:30.003Z,10.60
2022-12-26T10:03:58.434Z,10.60
2022-12-26T10:06:37.322Z,9.63
2022-12-26T10:09:27.475Z,11.00
2022-12-26T10:12:06.288Z,10.83
2022-12-26T10:14:38.816Z,9.27
2022-12-26T10:17:26.531Z,11.20
2022-12-26T10:20:02.278Z,8.60
2022-12-26T10:22:55.903Z,8.97
2022-12-26T10:25:38.645Z,8.70
2022-12-26T10:28:10.806Z,8.87
2022-12-26T10:30:41.829Z,8.20
2022-12-26T10:33:22.467Z,9.03
2022-12-26T10:35:49.319Z,7.87
2022-12-26T10:38:32.516Z,7.70
2022-12-26T10:41:08.165Z,8.20
2022-12-26T10:43:35.412Z,7.70
2022-12-26T10:46:30.233Z,8.00
2022-12-26T10:48:57.090Z,7.50
2022-12-26T10:51:25.186Z,6.83
2022-12-26T10:53:53.955Z,6.83
2022-12-26T10:56:22.142Z,5.50
2022-12-26T10:58:59.920Z,5.70
2022-12-26T11:01:38.195Z,5.47
2022-12-26T11:04:18.894Z,5.27
2022-12-26T11:06:52.426Z,5.70
2022-12-26T11:09:40.103Z,5.10
2022-12-26T11:12:22.832Z,5.50
2022-12-26T11:14:56.849Z,5.60
2022-12-26T11:17:33.425Z,4.30
2022-12-26T11:20:16.103Z,4.63
2022-12-26T11:22:44.113Z,4.13
2022-12-26T11:25:10.780Z,3.83
2022-12-26T11:27:42.236Z,3.53
2022-12-26T11:30:14.989Z,3.57
2022-12-26T11:32:47.273Z,3.80
2022-12-26T11:35:26.987Z,4.27
2022-12-26T11:37:56.846Z,3.40
2022-12-26T11:40:38.509Z,3.20
2022-12-26T11:43:15.114Z,3.73
2022-12-26T11:45:48.813Z,3.70
2022-12-26T11:48:24.834Z,3.27
2022-12-26T11:50:52.195Z,3.13
2022-12-26T11:53:21.972Z,3.27
2022-12-26T11:56:06.073Z,2.87
2022-12-26T11:58:36.001Z,3.30
2022-12-26T12:01:06.413Z,2.87
2022-12-26T12:03:49.696Z,2.30
2022-12-26T12:06:37.158Z,2.90
2022-12-26T12:09:06.589Z,2.30
2022-12-26T12:12:00.667Z,2.53
2022-12-26T12:14:52.476Z,1.90
2022-12-26T12:17:32.536Z,2.37
2022-12-26T12:20:06.829Z,1.97
2022-12-26T12:22:45.346Z,2.80
2022-12-26T12:25:30.913Z,2.20
2022-12-26T12:28:10.241Z,2.37
2022-12-26T12:30:45.603Z,2.30
2022-12-26T12:33:35.899Z,1.67
2022-12-26T12:36:11.716Z,2.63
2022-12-26T12:38:58.373Z,2.43
2022-12-26T12:41:43.441Z,2.30
2022-12-26T12:44:21.397Z,2.63
2022-12-26T12:47:11.753Z,2.40
2022-12-26T12:50:23.506Z,2.70
2022-12-26T12:53:27.049Z,2.83
2022-12-26T12:56:23.731Z,2.50
2022-12-26T12:59:05.431Z,2.30
2022-12-26T13:01:39.762Z,2.40
2022-12-26T13:04:15.835Z,2.50
2022-12-26T13:06:53.016Z,2.60
2022-12-26T13:09:29.116Z,2.40
2022-12-26T13:12:02.392Z,2.50
2022-12-26T13:14:44.178Z,2.83
2022-12-26T13:17:53.355Z,3.00
2022-12-26T13:20:34.328Z,3.30
2022-12-26T13:23:25.102Z,3.13
2022-12-26T13:26:10.098Z,2.50
2022-12-26T13:28:48.811Z,4.00
2022-12-26T13:31:15.606Z,2.83
2022-12-26T13:33:44.115Z,3.40
2022-12-26T13:36:47.856Z,2.60
2022-12-26T13:39:27.723Z,3.60
2022-12-26T13:42:35.596Z,2.47
2022-12-26T13:45:47.521Z,2.00
2022-12-26T13:48:17.170Z,1.30
2022-12-26T13:51:01.374Z,0.97
2022-12-26T13:53:33.349Z,0.90
2022-12-26T13:56:02.734Z,0.87
2022-12-26T13:58:32.020Z,1.00
2022-12-26T14:01:05.111Z,0.80
2022-12-26T14:03:48.244Z,0.70
2022-12-26T14:06:35.642Z,0.50
2022-12-26T14:09:16.884Z,0.70
2022-12-26T14:12:00.042Z,0.70
2022-12-26T14:15:05.617Z,0.73
2022-12-26T14:17:51.865Z,0.80
2022-12-26T14:20:39.478Z,0.70
2022-12-26T14:23:45.621Z,1.00
2022-12-26T14:26:31.172Z,0.70
2022-12-26T14:29:17.407Z,1.10
2022-12-26T14:31:58.457Z,0.97
2022-12-26T14:34:42.604Z,1.23
2022-12-26T14:37:41.168Z,0.70
2022-12-26T14:40:57.949Z,0.83
2022-12-26T14:43:39.669Z,0.80
2022-12-26T14:46:31.589Z,0.70
2022-12-26T14:49:17.773Z,0.57
2022-12-26T14:51:45.033Z,0.70
2022-12-26T14:54:22.124Z,0.93
2022-12-26T14:56:50.629Z,0.70
2022-12-26T14:59:29.655Z,0.67
2022-12-26T15:02:11.366Z,0.80
2022-12-26T15:05:08.305Z,0.63
2022-12-26T15:08:07.504Z,0.53
2022-12-26T15:10:58.372Z,0.90
2022-12-26T15:13:57.471Z,0.80
2022-12-26T15:16:42.290Z,0.80
2022-12-26T15:20:06.162Z,0.50
2022-12-26T15:23:12.659Z,0.60
2022-12-26T15:26:09.468Z,2.93
2022-12-26T15:29:14.539Z,1.90
2022-12-26T15:31:50.902Z,1.77
2022-12-26T15:34:36.629Z,1.27
2022-12-26T15:37:38.047Z,2.40
2022-12-26T15:40:22.631Z,1.93
2022-12-26T15:43:35.373Z,1.33
2022-12-26T15:46:20.875Z,1.00
2022-12-26T15:49:06.676Z,1.43
2022-12-26T15:51:56.278Z,1.60
2022-12-26T15:55:00.354Z,1.30
2022-12-26T15:57:54.373Z,2.00
2022-12-26T16:00:23.955Z,1.90
2022-12-26T16:03:12.886Z,3.30
2022-12-26T16:05:52.556Z,1.60
2022-12-26T16:08:36.113Z,2.90
2022-12-26T16:11:22.936Z,1.10
2022-12-26T16:13:59.252Z,2.07
2022-12-26T16:16:37.730Z,1.87
2022-12-26T16:19:22.963Z,3.20
2022-12-26T16:22:20.257Z,3.10
2022-12-26T16:24:51.307Z,6.73
2022-12-26T16:27:21.961Z,4.90
2022-12-26T16:29:52.873Z,5.30
2022-12-26T16:32:21.999Z,7.57
2022-12-26T16:34:49.453Z,3.60
2022-12-26T16:37:23.481Z,3.10
2022-12-26T16:40:17.723Z,3.50
2022-12-26T16:42:56.076Z,8.57
2022-12-26T16:45:23.482Z,2.10
2022-12-26T16:47:50.668Z,3.30
2022-12-26T16:50:21.736Z,2.93
2022-12-26T16:52:49.594Z,3.27
2022-12-26T16:55:35.783Z,3.00
2022-12-26T16:58:12.948Z,2.20
2022-12-26T17:00:40.125Z,1.83
2022-12-26T17:03:17.818Z,2.53
2022-12-26T17:05:46.954Z,2.03
2022-12-26T17:08:15.501Z,2.13
2022-12-26T17:10:48.735Z,2.30
2022-12-26T17:13:20.948Z,2.60
2022-12-26T17:16:01.863Z,2.53
2022-12-26T17:18:41.795Z,2.30
2022-12-26T17:21:23.793Z,2.97
2022-12-26T17:24:02.376Z,3.03
2022-12-26T17:26:30.529Z,2.87
2022-12-26T17:28:57.336Z,2.77
2022-12-26T17:31:44.431Z,2.50
2022-12-26T17:34:26.175Z,2.20
2022-12-26T17:39:41.441Z,2.50
2022-12-26T17:42:08.021Z,2.40
2022-12-26T17:44:38.741Z,2.30
2022-12-26T17:47:27.039Z,2.17
2022-12-26T17:49:54.823Z,1.80
2022-12-26T17:52:25.073Z,1.80
2022-12-26T17:54:53.163Z,1.77
2022-12-26T17:57:23.939Z,1.97
2022-12-26T17:59:52.458Z,2.03
2022-12-26T18:02:20.585Z,2.87
2022-12-26T18:04:47.670Z,2.87
2022-12-26T18:07:18.170Z,2.07
2022-12-26T18:09:45.500Z,1.77
2022-12-26T18:12:13.985Z,3.17
2022-12-26T18:14:40.694Z,1.90
2022-12-26T18:17:08.586Z,2.77
2022-12-26T18:19:36.610Z,2.30
2022-12-26T18:22:03.291Z,2.30
2022-12-26T18:24:31.032Z,2.00
2022-12-26T18:26:57.837Z,2.20
2022-12-26T18:29:24.751Z,1.87
2022-12-26T18:31:51.332Z,2.57
2022-12-26T18:34:18.266Z,1.80
2022-12-26T18:36:45.382Z,3.20
2022-12-26T18:39:15.189Z,3.10
2022-12-26T18:41:42.372Z,2.37
2022-12-26T18:44:09.368Z,2.70
2022-12-26T18:46:36.459Z,2.30
2022-12-26T18:49:03.366Z,2.70
2022-12-26T18:51:29.982Z,4.40
2022-12-26T18:53:56.944Z,1.93
2022-12-26T18:56:23.547Z,2.67
2022-12-26T18:58:57.410Z,1.90
2022-12-26T19:01:25.285Z,2.47
2022-12-26T19:03:53.650Z,2.37
2022-12-26T19:06:25.558Z,3.27
2022-12-26T19:08:52.396Z,3.57
2022-12-26T19:11:19.288Z,2.53
2022-12-26T19:13:45.901Z,2.23
2022-12-26T19:16:12.763Z,2.60
2022-12-26T19:18:39.582Z,2.10
2022-12-26T19:21:11.416Z,2.43
2022-12-26T19:23:37.996Z,2.10
2022-12-26T19:26:15.792Z,2.77
2022-12-26T19:28:42.348Z,2.13
2022-12-26T19:31:11.212Z,2.33
2022-12-26T19:33:38.211Z,2.17
2022-12-26T19:36:06.384Z,1.87
2022-12-26T19:38:33.055Z,2.20
2022-12-26T19:41:08.289Z,1.50
2022-12-26T19:43:35.023Z,2.23
2022-12-26T19:46:04.889Z,2.00
2022-12-26T19:48:33.157Z,2.10
2022-12-26T19:51:05.068Z,2.00
2022-12-26T19:53:32.877Z,2.37
2022-12-26T19:55:59.797Z,1.83
2022-12-26T19:58:29.790Z,2.40
2022-12-26T20:01:05.724Z,2.93
2022-12-26T20:03:32.592Z,1.83
2022-12-26T20:06:00.701Z,2.20
2022-12-26T20:08:27.244Z,2.00
2022-12-26T20:11:00.519Z,3.90
2022-12-26T20:13:27.342Z,4.30
2022-12-26T20:15:53.859Z,1.80
2022-12-26T20:18:20.370Z,2.10
2022-12-26T20:20:54.622Z,2.13
2022-12-26T20:23:21.217Z,2.17
2022-12-26T20:25:47.776Z,2.97
2022-12-26T20:28:14.420Z,2.30
2022-12-26T20:30:41.001Z,2.30
2022-12-26T20:33:07.653Z,4.13
2022-12-26T20:35:34.441Z,1.20
2022-12-26T20:38:01.025Z,3.20
2022-12-26T20:40:27.984Z,2.53
2022-12-26T20:42:54.504Z,2.03
2022-12-26T20:45:20.999Z,2.23
2022-12-26T20:47:47.516Z,2.13
2022-12-26T20:50:16.763Z,2.40
2022-12-26T20:52:43.300Z,3.10
2022-12-26T20:55:10.104Z,2.33
2022-12-26T20:57:36.655Z,2.03
2022-12-26T21:00:03.860Z,2.53
2022-12-26T21:02:30.942Z,2.90
2022-12-26T21:04:59.964Z,3.10
2022-12-26T21:07:26.716Z,3.23
2022-12-26T21:09:53.777Z,2.20
2022-12-26T21:12:20.325Z,3.10
2022-12-26T21:14:46.857Z,2.17
2022-12-26T21:17:17.889Z,2.77
2022-12-26T21:19:45.387Z,1.97
2022-12-26T21:22:11.894Z,1.97
2022-12-26T21:24:38.400Z,1.97
2022-12-26T21:27:05.545Z,4.00
2022-12-26T21:29:33.762Z,2.10
2022-12-26T21:32:02.525Z,2.20
2022-12-26T21:34:31.698Z,1.97
2022-12-26T21:37:18.054Z,1.97
2022-12-26T21:39:45.240Z,1.60
2022-12-26T21:42:12.037Z,2.07
2022-12-26T21:44:38.694Z,1.60
2022-12-26T21:47:07.979Z,2.43
2022-12-26T21:49:35.100Z,2.07
2022-12-26T21:52:01.701Z,2.87
2022-12-26T21:54:49.376Z,1.57
2022-12-26T21:57:17.125Z,2.07
2022-12-26T21:59:57.074Z,2.57
2022-12-26T22:03:02.688Z,1.63
2022-12-26T22:05:34.309Z,2.10
2022-12-26T22:08:01.666Z,2.37
2022-12-26T22:10:50.849Z,2.00
2022-12-26T22:13:18.641Z,1.47
2022-12-26T22:16:05.667Z,1.43
2022-12-26T22:18:58.485Z,2.67
2022-12-26T22:21:25.417Z,1.53
2022-12-26T22:23:52.656Z,2.50
2022-12-26T22:26:21.945Z,1.83
2022-12-26T22:28:49.646Z,1.83
2022-12-26T22:31:20.048Z,2.20
2022-12-26T22:33:47.737Z,2.00
2022-12-26T22:36:14.406Z,1.73
2022-12-26T22:38:41.046Z,1.83
2022-12-26T22:41:07.933Z,2.03
2022-12-26T22:43:35.394Z,2.10
2022-12-26T22:46:02.158Z,2.40
2022-12-26T22:48:28.809Z,2.17
2022-12-26T22:50:55.740Z,1.90
2022-12-26T22:53:24.594Z,1.63
2022-12-26T22:55:57.656Z,2.00
2022-12-26T22:58:25.981Z,1.77
2022-12-26T23:00:52.493Z,2.50
2022-12-26T23:03:19.998Z,3.50
2022-12-26T23:05:47.572Z,2.03
2022-12-26T23:08:18.756Z,1.50
2022-12-26T23:10:46.655Z,1.77
2022-12-26T23:13:15.028Z,1.50
2022-12-26T23:16:04.801Z,1.67
2022-12-26T23:19:14.152Z,1.47
2022-12-26T23:21:44.146Z,1.50
2022-12-26T23:24:18.650Z,1.60
2022-12-26T23:27:17.621Z,1.93
2022-12-26T23:30:02.971Z,1.53
2022-12-26T23:32:30.377Z,1.60
2022-12-26T23:34:56.909Z,2.03
2022-12-26T23:37:23.502Z,1.57
2022-12-26T23:39:50.146Z,1.63
2022-12-26T23:42:16.690Z,1.20
2022-12-26T23:44:43.216Z,1.47
2022-12-26T23:47:10.546Z,1.57
2022-12-26T23:49:37.045Z,1.93
2022-12-26T23:52:03.675Z,1.80
2022-12-26T23:54:30.524Z,1.37
2022-12-26T23:56:57.590Z,1.57
2022-12-26T23:59:25.016Z,1.47
